sensor_id;sensor_type;location;lat;lon;timestamp;P1;durP1;ratioP1;P2;durP2;ratioP2
16957;SDS011;8595;52.542;11.974;2023-05-07T00:01:14;20.35;;;15.98;;
16957;SDS011;8595;52.542;11.974;2023-05-07T00:03:41;18.45;;;16.48;;
16957;SDS011;8595;52.542;11.974;2023-05-07T00:06:08;20.05;;;16.15;;
16957;SDS011;8595;52.542;11.974;2023-05-07T00:08:37;17.38;;;14.80;;
16957;SDS011;8595;52.542;11.974;2023-05-07T00:11:05;15.90;;;12.95;;
16957;SDS011;8595;52.542;11.974;2023-05-07T00:13:32;15.50;;;13.13;;
16957;SDS011;8595;52.542;11.974;2023-05-07T00:16:01;19.17;;;14.98;;
16957;SDS011;8595;52.542;11.974;2023-05-07T00:18:28;17.33;;;13.93;;
16957;SDS011;8595;52.542;11.974;2023-05-07T00:20:55;19.35;;;14.88;;
16957;SDS011;8595;52.542;11.974;2023-05-07T00:23:22;20.67;;;14.55;;
16957;SDS011;8595;52.542;11.974;2023-05-07T00:25:49;17.83;;;14.60;;
16957;SDS011;8595;52.542;11.974;2023-05-07T00:28:17;22.13;;;17.00;;
16957;SDS011;8595;52.542;11.974;2023-05-07T00:30:46;18.95;;;15.95;;
16957;SDS011;8595;52.542;11.974;2023-05-07T00:33:13;19.25;;;16.35;;
16957;SDS011;8595;52.542;11.974;2023-05-07T00:35:40;19.80;;;15.88;;
16957;SDS011;8595;52.542;11.974;2023-05-07T00:38:08;26.05;;;17.42;;
16957;SDS011;8595;52.542;11.974;2023-05-07T00:40:35;19.38;;;17.13;;
16957;SDS011;8595;52.542;11.974;2023-05-07T00:43:01;17.80;;;15.82;;
16957;SDS011;8595;52.542;11.974;2023-05-07T00:45:31;20.92;;;16.42;;
16957;SDS011;8595;52.542;11.974;2023-05-07T00:47:59;19.58;;;17.17;;
16957;SDS011;8595;52.542;11.974;2023-05-07T00:50:27;18.92;;;15.98;;
16957;SDS011;8595;52.542;11.974;2023-05-07T00:52:54;20.45;;;16.33;;
16957;SDS011;8595;52.542;11.974;2023-05-07T00:55:23;24.48;;;18.63;;
16957;SDS011;8595;52.542;11.974;2023-05-07T00:57:50;19.08;;;15.70;;
16957;SDS011;8595;52.542;11.974;2023-05-07T01:00:18;23.08;;;16.98;;
16957;SDS011;8595;52.542;11.974;2023-05-07T01:02:46;21.67;;;18.90;;
16957;SDS011;8595;52.542;11.974;2023-05-07T01:05:14;23.90;;;17.23;;
16957;SDS011;8595;52.542;11.974;2023-05-07T01:07:43;21.65;;;16.08;;
16957;SDS011;8595;52.542;11.974;2023-05-07T01:10:10;21.48;;;17.05;;
16957;SDS011;8595;52.542;11.974;2023-05-07T01:12:38;23.45;;;19.17;;
16957;SDS011;8595;52.542;11.974;2023-05-07T01:15:08;21.45;;;17.15;;
16957;SDS011;8595;52.542;11.974;2023-05-07T01:17:35;27.60;;;20.13;;
16957;SDS011;8595;52.542;11.974;2023-05-07T01:20:05;23.80;;;19.15;;
16957;SDS011;8595;52.542;11.974;2023-05-07T01:22:34;23.02;;;18.08;;
16957;SDS011;8595;52.542;11.974;2023-05-07T01:25:02;23.80;;;20.35;;
16957;SDS011;8595;52.542;11.974;2023-05-07T01:27:30;23.50;;;19.30;;
16957;SDS011;8595;52.542;11.974;2023-05-07T01:29:58;28.25;;;20.05;;
16957;SDS011;8595;52.542;11.974;2023-05-07T01:32:27;22.90;;;17.48;;
16957;SDS011;8595;52.542;11.974;2023-05-07T01:34:58;25.85;;;17.77;;
16957;SDS011;8595;52.542;11.974;2023-05-07T01:37:27;26.52;;;19.65;;
16957;SDS011;8595;52.542;11.974;2023-05-07T01:39:56;28.45;;;20.25;;
16957;SDS011;8595;52.542;11.974;2023-05-07T01:42:24;27.70;;;19.30;;
16957;SDS011;8595;52.542;11.974;2023-05-07T01:44:51;29.23;;;20.95;;
16957;SDS011;8595;52.542;11.974;2023-05-07T01:47:18;27.75;;;19.90;;
16957;SDS011;8595;52.542;11.974;2023-05-07T01:49:46;24.75;;;19.23;;
16957;SDS011;8595;52.542;11.974;2023-05-07T01:52:13;29.23;;;21.33;;
16957;SDS011;8595;52.542;11.974;2023-05-07T01:54:40;25.83;;;20.38;;
16957;SDS011;8595;52.542;11.974;2023-05-07T01:57:08;26.83;;;20.90;;
16957;SDS011;8595;52.542;11.974;2023-05-07T01:59:35;27.23;;;19.27;;
16957;SDS011;8595;52.542;11.974;2023-05-07T02:02:02;24.67;;;19.73;;
16957;SDS011;8595;52.542;11.974;2023-05-07T02:04:29;24.63;;;20.50;;
16957;SDS011;8595;52.542;11.974;2023-05-07T02:06:57;21.02;;;17.27;;
16957;SDS011;8595;52.542;11.974;2023-05-07T02:09:24;21.95;;;18.02;;
16957;SDS011;8595;52.542;11.974;2023-05-07T02:11:51;25.75;;;19.38;;
16957;SDS011;8595;52.542;11.974;2023-05-07T02:14:20;24.60;;;18.73;;
16957;SDS011;8595;52.542;11.974;2023-05-07T02:16:47;18.65;;;15.10;;
16957;SDS011;8595;52.542;11.974;2023-05-07T02:19:14;24.38;;;17.50;;
16957;SDS011;8595;52.542;11.974;2023-05-07T02:21:41;22.73;;;17.05;;
16957;SDS011;8595;52.542;11.974;2023-05-07T02:24:08;23.23;;;19.30;;
16957;SDS011;8595;52.542;11.974;2023-05-07T02:26:35;25.20;;;19.45;;
16957;SDS011;8595;52.542;11.974;2023-05-07T02:29:02;22.73;;;18.17;;
16957;SDS011;8595;52.542;11.974;2023-05-07T02:31:30;21.88;;;17.52;;
16957;SDS011;8595;52.542;11.974;2023-05-07T02:34:00;24.92;;;17.27;;
16957;SDS011;8595;52.542;11.974;2023-05-07T02:36:27;20.75;;;17.50;;
16957;SDS011;8595;52.542;11.974;2023-05-07T02:38:54;24.13;;;17.35;;
16957;SDS011;8595;52.542;11.974;2023-05-07T02:41:20;23.73;;;17.90;;
16957;SDS011;8595;52.542;11.974;2023-05-07T02:43:47;21.88;;;17.50;;
16957;SDS011;8595;52.542;11.974;2023-05-07T02:46:14;21.45;;;17.23;;
16957;SDS011;8595;52.542;11.974;2023-05-07T02:48:45;22.35;;;17.17;;
16957;SDS011;8595;52.542;11.974;2023-05-07T02:51:13;18.75;;;15.20;;
16957;SDS011;8595;52.542;11.974;2023-05-07T02:53:40;21.02;;;16.75;;
16957;SDS011;8595;52.542;11.974;2023-05-07T02:56:07;18.42;;;14.80;;
16957;SDS011;8595;52.542;11.974;2023-05-07T02:58:33;20.25;;;16.25;;
16957;SDS011;8595;52.542;11.974;2023-05-07T03:01:00;20.48;;;15.32;;
16957;SDS011;8595;52.542;11.974;2023-05-07T03:03:27;16.27;;;14.27;;
16957;SDS011;8595;52.542;11.974;2023-05-07T03:05:56;18.52;;;15.55;;
16957;SDS011;8595;52.542;11.974;2023-05-07T03:08:23;18.65;;;15.52;;
16957;SDS011;8595;52.542;11.974;2023-05-07T03:10:50;17.40;;;15.32;;
16957;SDS011;8595;52.542;11.974;2023-05-07T03:13:17;15.13;;;13.18;;
16957;SDS011;8595;52.542;11.974;2023-05-07T03:15:44;16.92;;;14.85;;
16957;SDS011;8595;52.542;11.974;2023-05-07T03:18:11;18.67;;;14.60;;
16957;SDS011;8595;52.542;11.974;2023-05-07T03:20:38;20.52;;;15.00;;
16957;SDS011;8595;52.542;11.974;2023-05-07T03:23:06;18.30;;;15.15;;
16957;SDS011;8595;52.542;11.974;2023-05-07T03:25:33;16.60;;;13.77;;
16957;SDS011;8595;52.542;11.974;2023-05-07T03:28:00;18.35;;;15.02;;
16957;SDS011;8595;52.542;11.974;2023-05-07T03:30:26;18.20;;;14.55;;
16957;SDS011;8595;52.542;11.974;2023-05-07T03:32:53;18.10;;;14.88;;
16957;SDS011;8595;52.542;11.974;2023-05-07T03:35:20;19.83;;;14.20;;
16957;SDS011;8595;52.542;11.974;2023-05-07T03:37:47;19.27;;;14.73;;
16957;SDS011;8595;52.542;11.974;2023-05-07T03:40:15;20.63;;;16.17;;
16957;SDS011;8595;52.542;11.974;2023-05-07T03:42:42;17.70;;;15.55;;
16957;SDS011;8595;52.542;11.974;2023-05-07T03:45:09;19.85;;;14.50;;
16957;SDS011;8595;52.542;11.974;2023-05-07T03:47:36;16.55;;;14.20;;
16957;SDS011;8595;52.542;11.974;2023-05-07T03:50:03;15.80;;;13.38;;
16957;SDS011;8595;52.542;11.974;2023-05-07T03:52:30;18.88;;;15.50;;
16957;SDS011;8595;52.542;11.974;2023-05-07T03:54:57;17.67;;;15.32;;
16957;SDS011;8595;52.542;11.974;2023-05-07T03:57:25;17.08;;;14.13;;
16957;SDS011;8595;52.542;11.974;2023-05-07T03:59:52;17.38;;;14.88;;
16957;SDS011;8595;52.542;11.974;2023-05-07T04:02:18;19.50;;;14.00;;
16957;SDS011;8595;52.542;11.974;2023-05-07T04:04:45;19.52;;;14.80;;
16957;SDS011;8595;52.542;11.974;2023-05-07T04:07:15;16.75;;;13.93;;
16957;SDS011;8595;52.542;11.974;2023-05-07T04:09:44;19.10;;;15.25;;
16957;SDS011;8595;52.542;11.974;2023-05-07T04:12:11;21.95;;;17.00;;
16957;SDS011;8595;52.542;11.974;2023-05-07T04:14:39;17.70;;;15.13;;
16957;SDS011;8595;52.542;11.974;2023-05-07T04:17:06;20.08;;;16.42;;
16957;SDS011;8595;52.542;11.974;2023-05-07T04:19:35;17.95;;;16.00;;
16957;SDS011;8595;52.542;11.974;2023-05-07T04:22:02;21.70;;;16.45;;
16957;SDS011;8595;52.542;11.974;2023-05-07T04:24:31;19.55;;;15.40;;
16957;SDS011;8595;52.542;11.974;2023-05-07T04:26:58;20.10;;;16.40;;
16957;SDS011;8595;52.542;11.974;2023-05-07T04:29:24;21.35;;;16.80;;
16957;SDS011;8595;52.542;11.974;2023-05-07T04:31:53;18.42;;;15.50;;
16957;SDS011;8595;52.542;11.974;2023-05-07T04:34:21;16.60;;;14.85;;
16957;SDS011;8595;52.542;11.974;2023-05-07T04:36:48;18.52;;;15.30;;
16957;SDS011;8595;52.542;11.974;2023-05-07T04:39:14;19.42;;;16.85;;
16957;SDS011;8595;52.542;11.974;2023-05-07T04:41:41;16.88;;;14.93;;
16957;SDS011;8595;52.542;11.974;2023-05-07T04:44:08;16.88;;;14.57;;
16957;SDS011;8595;52.542;11.974;2023-05-07T04:46:35;15.75;;;14.07;;
16957;SDS011;8595;52.542;11.974;2023-05-07T04:49:04;17.60;;;14.45;;
16957;SDS011;8595;52.542;11.974;2023-05-07T04:51:31;14.05;;;12.60;;
16957;SDS011;8595;52.542;11.974;2023-05-07T04:53:58;14.85;;;13.23;;
16957;SDS011;8595;52.542;11.974;2023-05-07T04:56:27;16.00;;;13.68;;
16957;SDS011;8595;52.542;11.974;2023-05-07T04:58:56;15.23;;;13.63;;
16957;SDS011;8595;52.542;11.974;2023-05-07T05:01:26;14.75;;;13.02;;
16957;SDS011;8595;52.542;11.974;2023-05-07T05:03:54;16.02;;;13.57;;
16957;SDS011;8595;52.542;11.974;2023-05-07T05:06:28;14.50;;;12.90;;
16957;SDS011;8595;52.542;11.974;2023-05-07T05:08:55;14.43;;;12.93;;
16957;SDS011;8595;52.542;11.974;2023-05-07T05:11:22;14.77;;;13.00;;
16957;SDS011;8595;52.542;11.974;2023-05-07T05:13:49;14.27;;;12.88;;
16957;SDS011;8595;52.542;11.974;2023-05-07T05:16:16;14.07;;;12.10;;
16957;SDS011;8595;52.542;11.974;2023-05-07T05:18:43;15.25;;;13.15;;
16957;SDS011;8595;52.542;11.974;2023-05-07T05:21:10;14.35;;;12.40;;
16957;SDS011;8595;52.542;11.974;2023-05-07T05:23:38;13.55;;;12.13;;
16957;SDS011;8595;52.542;11.974;2023-05-07T05:26:08;13.32;;;11.65;;
16957;SDS011;8595;52.542;11.974;2023-05-07T05:28:35;14.35;;;12.77;;
16957;SDS011;8595;52.542;11.974;2023-05-07T05:31:02;12.45;;;11.10;;
16957;SDS011;8595;52.542;11.974;2023-05-07T05:33:29;12.27;;;10.77;;
16957;SDS011;8595;52.542;11.974;2023-05-07T05:35:56;12.50;;;11.23;;
16957;SDS011;8595;52.542;11.974;2023-05-07T05:38:24;14.52;;;11.35;;
16957;SDS011;8595;52.542;11.974;2023-05-07T05:40:54;12.07;;;10.82;;
16957;SDS011;8595;52.542;11.974;2023-05-07T05:43:20;13.02;;;10.77;;
16957;SDS011;8595;52.542;11.974;2023-05-07T05:45:47;12.55;;;10.27;;
16957;SDS011;8595;52.542;11.974;2023-05-07T05:48:14;13.23;;;11.38;;
16957;SDS011;8595;52.542;11.974;2023-05-07T05:50:41;12.27;;;11.00;;
16957;SDS011;8595;52.542;11.974;2023-05-07T05:53:08;14.80;;;12.00;;
16957;SDS011;8595;52.542;11.974;2023-05-07T05:55:35;11.88;;;9.88;;
16957;SDS011;8595;52.542;11.974;2023-05-07T05:58:04;15.77;;;11.82;;
16957;SDS011;8595;52.542;11.974;2023-05-07T06:00:31;13.05;;;11.20;;
16957;SDS011;8595;52.542;11.974;2023-05-07T06:02:59;13.10;;;10.57;;
16957;SDS011;8595;52.542;11.974;2023-05-07T06:05:26;17.48;;;12.75;;
16957;SDS011;8595;52.542;11.974;2023-05-07T06:07:53;18.77;;;12.70;;
16957;SDS011;8595;52.542;11.974;2023-05-07T06:10:20;14.63;;;12.40;;
16957;SDS011;8595;52.542;11.974;2023-05-07T06:12:47;13.25;;;10.70;;
16957;SDS011;8595;52.542;11.974;2023-05-07T06:15:15;14.32;;;12.68;;
16957;SDS011;8595;52.542;11.974;2023-05-07T06:17:42;16.10;;;12.82;;
16957;SDS011;8595;52.542;11.974;2023-05-07T06:20:09;14.20;;;12.07;;
16957;SDS011;8595;52.542;11.974;2023-05-07T06:22:36;15.88;;;12.98;;
16957;SDS011;8595;52.542;11.974;2023-05-07T06:25:03;19.98;;;12.98;;
16957;SDS011;8595;52.542;11.974;2023-05-07T06:27:30;16.05;;;13.50;;
16957;SDS011;8595;52.542;11.974;2023-05-07T06:29:57;14.68;;;12.43;;
16957;SDS011;8595;52.542;11.974;2023-05-07T06:32:27;14.63;;;12.00;;
16957;SDS011;8595;52.542;11.974;2023-05-07T06:34:53;13.40;;;11.77;;
16957;SDS011;8595;52.542;11.974;2023-05-07T06:37:21;18.08;;;12.82;;
16957;SDS011;8595;52.542;11.974;2023-05-07T06:39:48;12.43;;;11.13;;
16957;SDS011;8595;52.542;11.974;2023-05-07T06:42:18;16.35;;;11.15;;
16957;SDS011;8595;52.542;11.974;2023-05-07T06:44:46;13.57;;;11.77;;
16957;SDS011;8595;52.542;11.974;2023-05-07T06:47:12;13.65;;;11.43;;
16957;SDS011;8595;52.542;11.974;2023-05-07T06:49:41;13.10;;;10.10;;
16957;SDS011;8595;52.542;11.974;2023-05-07T06:52:08;13.82;;;11.90;;
16957;SDS011;8595;52.542;11.974;2023-05-07T06:54:35;12.38;;;10.88;;
16957;SDS011;8595;52.542;11.974;2023-05-07T06:57:02;12.23;;;10.52;;
16957;SDS011;8595;52.542;11.974;2023-05-07T06:59:28;11.85;;;10.63;;
16957;SDS011;8595;52.542;11.974;2023-05-07T07:01:55;11.40;;;10.13;;
16957;SDS011;8595;52.542;11.974;2023-05-07T07:04:22;9.65;;;8.65;;
16957;SDS011;8595;52.542;11.974;2023-05-07T07:06:53;14.38;;;9.02;;
16957;SDS011;8595;52.542;11.974;2023-05-07T07:09:21;12.75;;;9.80;;
16957;SDS011;8595;52.542;11.974;2023-05-07T07:11:48;10.98;;;9.75;;
16957;SDS011;8595;52.542;11.974;2023-05-07T07:14:15;12.75;;;10.05;;
16957;SDS011;8595;52.542;11.974;2023-05-07T07:16:41;11.85;;;10.10;;
16957;SDS011;8595;52.542;11.974;2023-05-07T07:19:08;11.55;;;10.10;;
16957;SDS011;8595;52.542;11.974;2023-05-07T07:21:35;10.15;;;8.95;;
16957;SDS011;8595;52.542;11.974;2023-05-07T07:24:03;10.30;;;9.05;;
16957;SDS011;8595;52.542;11.974;2023-05-07T07:26:30;12.43;;;10.18;;
16957;SDS011;8595;52.542;11.974;2023-05-07T07:28:57;14.60;;;10.32;;
16957;SDS011;8595;52.542;11.974;2023-05-07T07:31:24;11.63;;;9.43;;
16957;SDS011;8595;52.542;11.974;2023-05-07T07:33:51;11.57;;;9.40;;
16957;SDS011;8595;52.542;11.974;2023-05-07T07:36:18;11.45;;;10.18;;
16957;SDS011;8595;52.542;11.974;2023-05-07T07:38:45;10.75;;;9.65;;
16957;SDS011;8595;52.542;11.974;2023-05-07T07:41:14;11.60;;;9.43;;
16957;SDS011;8595;52.542;11.974;2023-05-07T07:43:40;12.50;;;9.82;;
16957;SDS011;8595;52.542;11.974;2023-05-07T07:46:07;12.27;;;9.50;;
16957;SDS011;8595;52.542;11.974;2023-05-07T07:48:34;12.85;;;9.13;;
16957;SDS011;8595;52.542;11.974;2023-05-07T07:51:01;11.70;;;9.32;;
16957;SDS011;8595;52.542;11.974;2023-05-07T07:53:28;13.70;;;9.73;;
16957;SDS011;8595;52.542;11.974;2023-05-07T07:55:55;12.40;;;11.10;;
16957;SDS011;8595;52.542;11.974;2023-05-07T07:58:23;11.95;;;10.15;;
16957;SDS011;8595;52.542;11.974;2023-05-07T08:00:50;13.15;;;9.80;;
16957;SDS011;8595;52.542;11.974;2023-05-07T08:03:17;12.30;;;10.23;;
16957;SDS011;8595;52.542;11.974;2023-05-07T08:05:44;15.10;;;10.90;;
16957;SDS011;8595;52.542;11.974;2023-05-07T08:08:11;13.35;;;11.50;;
16957;SDS011;8595;52.542;11.974;2023-05-07T08:10:38;12.90;;;11.60;;
16957;SDS011;8595;52.542;11.974;2023-05-07T08:13:05;15.63;;;12.18;;
16957;SDS011;8595;52.542;11.974;2023-05-07T08:15:33;14.40;;;11.27;;
16957;SDS011;8595;52.542;11.974;2023-05-07T08:18:01;16.63;;;12.50;;
16957;SDS011;8595;52.542;11.974;2023-05-07T08:20:28;20.88;;;14.10;;
16957;SDS011;8595;52.542;11.974;2023-05-07T08:22:55;17.30;;;14.10;;
16957;SDS011;8595;52.542;11.974;2023-05-07T08:25:22;15.82;;;13.68;;
16957;SDS011;8595;52.542;11.974;2023-05-07T08:27:49;16.52;;;12.23;;
16957;SDS011;8595;52.542;11.974;2023-05-07T08:30:16;16.25;;;13.30;;
16957;SDS011;8595;52.542;11.974;2023-05-07T08:32:44;15.15;;;13.55;;
16957;SDS011;8595;52.542;11.974;2023-05-07T08:35:10;15.90;;;13.27;;
16957;SDS011;8595;52.542;11.974;2023-05-07T08:37:38;16.70;;;13.15;;
16957;SDS011;8595;52.542;11.974;2023-05-07T08:40:05;14.13;;;12.60;;
16957;SDS011;8595;52.542;11.974;2023-05-07T08:42:34;14.23;;;12.57;;
16957;SDS011;8595;52.542;11.974;2023-05-07T08:45:02;15.80;;;12.48;;
16957;SDS011;8595;52.542;11.974;2023-05-07T08:47:34;13.35;;;11.75;;
16957;SDS011;8595;52.542;11.974;2023-05-07T08:50:07;13.77;;;11.80;;
16957;SDS011;8595;52.542;11.974;2023-05-07T08:52:35;14.30;;;12.35;;
16957;SDS011;8595;52.542;11.974;2023-05-07T08:55:02;13.82;;;11.88;;
16957;SDS011;8595;52.542;11.974;2023-05-07T08:57:30;12.85;;;11.55;;
16957;SDS011;8595;52.542;11.974;2023-05-07T08:59:57;13.65;;;11.63;;
16957;SDS011;8595;52.542;11.974;2023-05-07T09:02:24;13.10;;;10.30;;
16957;SDS011;8595;52.542;11.974;2023-05-07T09:04:51;12.70;;;9.80;;
16957;SDS011;8595;52.542;11.974;2023-05-07T09:07:19;13.43;;;9.93;;
16957;SDS011;8595;52.542;11.974;2023-05-07T09:09:46;13.95;;;10.50;;
16957;SDS011;8595;52.542;11.974;2023-05-07T09:12:13;12.18;;;10.00;;
16957;SDS011;8595;52.542;11.974;2023-05-07T09:14:40;12.02;;;10.65;;
16957;SDS011;8595;52.542;11.974;2023-05-07T09:17:06;14.68;;;10.55;;
16957;SDS011;8595;52.542;11.974;2023-05-07T09:19:33;11.65;;;10.15;;
16957;SDS011;8595;52.542;11.974;2023-05-07T09:22:00;10.13;;;8.88;;
16957;SDS011;8595;52.542;11.974;2023-05-07T09:24:29;10.38;;;9.38;;
16957;SDS011;8595;52.542;11.974;2023-05-07T09:27:00;10.55;;;8.93;;
16957;SDS011;8595;52.542;11.974;2023-05-07T09:29:27;9.73;;;8.73;;
16957;SDS011;8595;52.542;11.974;2023-05-07T09:31:55;10.73;;;9.13;;
16957;SDS011;8595;52.542;11.974;2023-05-07T09:34:22;11.38;;;8.88;;
16957;SDS011;8595;52.542;11.974;2023-05-07T09:36:48;10.75;;;9.65;;
16957;SDS011;8595;52.542;11.974;2023-05-07T09:39:15;8.85;;;7.95;;
16957;SDS011;8595;52.542;11.974;2023-05-07T09:41:44;8.93;;;8.02;;
16957;SDS011;8595;52.542;11.974;2023-05-07T09:44:11;8.15;;;7.32;;
16957;SDS011;8595;52.542;11.974;2023-05-07T09:46:38;8.85;;;8.05;;
16957;SDS011;8595;52.542;11.974;2023-05-07T09:49:07;10.07;;;8.13;;
16957;SDS011;8595;52.542;11.974;2023-05-07T09:51:39;11.27;;;9.20;;
16957;SDS011;8595;52.542;11.974;2023-05-07T09:54:11;10.50;;;8.55;;
16957;SDS011;8595;52.542;11.974;2023-05-07T09:56:38;9.18;;;7.97;;
16957;SDS011;8595;52.542;11.974;2023-05-07T09:59:08;10.43;;;7.50;;
16957;SDS011;8595;52.542;11.974;2023-05-07T10:01:38;9.32;;;7.80;;
16957;SDS011;8595;52.542;11.974;2023-05-07T10:04:08;8.60;;;7.70;;
16957;SDS011;8595;52.542;11.974;2023-05-07T10:06:36;12.38;;;9.68;;
16957;SDS011;8595;52.542;11.974;2023-05-07T10:09:03;12.15;;;8.32;;
16957;SDS011;8595;52.542;11.974;2023-05-07T10:11:31;11.60;;;8.40;;
16957;SDS011;8595;52.542;11.974;2023-05-07T10:14:01;9.10;;;7.38;;
16957;SDS011;8595;52.542;11.974;2023-05-07T10:16:32;10.75;;;9.45;;
16957;SDS011;8595;52.542;11.974;2023-05-07T10:19:10;10.10;;;7.90;;
16957;SDS011;8595;52.542;11.974;2023-05-07T10:21:37;11.57;;;7.50;;
16957;SDS011;8595;52.542;11.974;2023-05-07T10:24:10;9.80;;;6.75;;
16957;SDS011;8595;52.542;11.974;2023-05-07T10:26:41;7.97;;;7.00;;
16957;SDS011;8595;52.542;11.974;2023-05-07T10:29:11;7.82;;;6.85;;
16957;SDS011;8595;52.542;11.974;2023-05-07T10:34:27;6.30;;;5.70;;
16957;SDS011;8595;52.542;11.974;2023-05-07T10:36:58;6.00;;;5.43;;
16957;SDS011;8595;52.542;11.974;2023-05-07T10:39:26;7.72;;;6.38;;
16957;SDS011;8595;52.542;11.974;2023-05-07T10:41:53;6.15;;;5.43;;
16957;SDS011;8595;52.542;11.974;2023-05-07T10:44:26;7.07;;;5.65;;
16957;SDS011;8595;52.542;11.974;2023-05-07T10:47:05;7.32;;;5.88;;
16957;SDS011;8595;52.542;11.974;2023-05-07T10:49:35;7.13;;;5.32;;
16957;SDS011;8595;52.542;11.974;2023-05-07T10:52:16;6.85;;;5.20;;
16957;SDS011;8595;52.542;11.974;2023-05-07T10:54:45;6.65;;;5.78;;
16957;SDS011;8595;52.542;11.974;2023-05-07T10:57:32;6.18;;;5.47;;
16957;SDS011;8595;52.542;11.974;2023-05-07T11:00:00;6.18;;;5.55;;
16957;SDS011;8595;52.542;11.974;2023-05-07T11:05:34;6.43;;;5.72;;
16957;SDS011;8595;52.542;11.974;2023-05-07T11:08:01;7.72;;;5.60;;
16957;SDS011;8595;52.542;11.974;2023-05-07T11:16:17;8.88;;;4.85;;
16957;SDS011;8595;52.542;11.974;2023-05-07T11:18:49;4.07;;;3.75;;
16957;SDS011;8595;52.542;11.974;2023-05-07T11:24:05;5.03;;;4.60;;
16957;SDS011;8595;52.542;11.974;2023-05-07T11:29:19;4.70;;;3.67;;
16957;SDS011;8595;52.542;11.974;2023-05-07T11:31:50;4.60;;;4.03;;
16957;SDS011;8595;52.542;11.974;2023-05-07T11:34:21;4.20;;;3.78;;
16957;SDS011;8595;52.542;11.974;2023-05-07T11:36:50;5.00;;;3.60;;
16957;SDS011;8595;52.542;11.974;2023-05-07T11:39:27;4.53;;;4.10;;
16957;SDS011;8595;52.542;11.974;2023-05-07T11:41:56;4.88;;;3.90;;
16957;SDS011;8595;52.542;11.974;2023-05-07T11:44:23;4.82;;;4.35;;
16957;SDS011;8595;52.542;11.974;2023-05-07T11:46:50;4.13;;;3.80;;
16957;SDS011;8595;52.542;11.974;2023-05-07T11:49:17;4.53;;;3.92;;
16957;SDS011;8595;52.542;11.974;2023-05-07T11:51:45;4.47;;;4.00;;
16957;SDS011;8595;52.542;11.974;2023-05-07T11:54:16;6.57;;;3.97;;
16957;SDS011;8595;52.542;11.974;2023-05-07T11:56:43;6.60;;;3.60;;
16957;SDS011;8595;52.542;11.974;2023-05-07T11:59:12;3.97;;;3.67;;
16957;SDS011;8595;52.542;11.974;2023-05-07T12:01:45;3.40;;;3.10;;
16957;SDS011;8595;52.542;11.974;2023-05-07T12:04:12;3.55;;;3.25;;
16957;SDS011;8595;52.542;11.974;2023-05-07T12:06:39;4.05;;;3.55;;
16957;SDS011;8595;52.542;11.974;2023-05-07T12:09:06;3.50;;;3.20;;
16957;SDS011;8595;52.542;11.974;2023-05-07T12:11:37;4.38;;;3.30;;
16957;SDS011;8595;52.542;11.974;2023-05-07T12:14:05;4.97;;;3.65;;
16957;SDS011;8595;52.542;11.974;2023-05-07T12:16:32;4.18;;;3.65;;
16957;SDS011;8595;52.542;11.974;2023-05-07T12:19:00;3.75;;;3.10;;
16957;SDS011;8595;52.542;11.974;2023-05-07T12:21:27;3.50;;;3.20;;
16957;SDS011;8595;52.542;11.974;2023-05-07T12:23:54;4.55;;;3.25;;
16957;SDS011;8595;52.542;11.974;2023-05-07T12:26:23;6.88;;;3.50;;
16957;SDS011;8595;52.542;11.974;2023-05-07T12:28:52;3.40;;;3.10;;
16957;SDS011;8595;52.542;11.974;2023-05-07T12:31:19;3.55;;;3.25;;
16957;SDS011;8595;52.542;11.974;2023-05-07T12:33:47;6.05;;;3.22;;
16957;SDS011;8595;52.542;11.974;2023-05-07T12:36:14;4.00;;;3.60;;
16957;SDS011;8595;52.542;11.974;2023-05-07T12:38:42;6.10;;;3.85;;
16957;SDS011;8595;52.542;11.974;2023-05-07T12:41:10;3.70;;;3.35;;
16957;SDS011;8595;52.542;11.974;2023-05-07T12:43:37;4.22;;;3.42;;
16957;SDS011;8595;52.542;11.974;2023-05-07T12:46:06;3.92;;;3.53;;
16957;SDS011;8595;52.542;11.974;2023-05-07T12:48:35;4.35;;;3.95;;
16957;SDS011;8595;52.542;11.974;2023-05-07T12:51:02;6.22;;;3.38;;
16957;SDS011;8595;52.542;11.974;2023-05-07T12:53:31;4.90;;;4.22;;
16957;SDS011;8595;52.542;11.974;2023-05-07T12:55:58;5.75;;;4.45;;
16957;SDS011;8595;52.542;11.974;2023-05-07T12:58:26;5.47;;;4.25;;
16957;SDS011;8595;52.542;11.974;2023-05-07T13:00:54;4.38;;;3.97;;
16957;SDS011;8595;52.542;11.974;2023-05-07T13:03:25;4.88;;;4.03;;
16957;SDS011;8595;52.542;11.974;2023-05-07T13:05:54;3.88;;;3.58;;
16957;SDS011;8595;52.542;11.974;2023-05-07T13:08:28;3.92;;;3.63;;
16957;SDS011;8595;52.542;11.974;2023-05-07T13:11:01;5.20;;;4.00;;
16957;SDS011;8595;52.542;11.974;2023-05-07T13:13:31;5.20;;;4.47;;
16957;SDS011;8595;52.542;11.974;2023-05-07T13:15:59;4.47;;;4.10;;
16957;SDS011;8595;52.542;11.974;2023-05-07T13:18:28;4.55;;;3.85;;
16957;SDS011;8595;52.542;11.974;2023-05-07T13:20:56;4.63;;;4.22;;
16957;SDS011;8595;52.542;11.974;2023-05-07T13:23:23;4.88;;;4.35;;
16957;SDS011;8595;52.542;11.974;2023-05-07T13:25:51;5.93;;;4.35;;
16957;SDS011;8595;52.542;11.974;2023-05-07T13:28:19;5.25;;;3.80;;
16957;SDS011;8595;52.542;11.974;2023-05-07T13:30:46;5.18;;;4.75;;
16957;SDS011;8595;52.542;11.974;2023-05-07T13:33:13;4.03;;;3.42;;
16957;SDS011;8595;52.542;11.974;2023-05-07T13:35:41;3.75;;;3.42;;
16957;SDS011;8595;52.542;11.974;2023-05-07T13:38:08;5.45;;;3.92;;
16957;SDS011;8595;52.542;11.974;2023-05-07T13:40:35;4.30;;;3.70;;
16957;SDS011;8595;52.542;11.974;2023-05-07T13:43:02;5.90;;;4.35;;
16957;SDS011;8595;52.542;11.974;2023-05-07T13:45:28;5.28;;;4.47;;
16957;SDS011;8595;52.542;11.974;2023-05-07T13:47:56;4.32;;;3.92;;
16957;SDS011;8595;52.542;11.974;2023-05-07T13:50:23;5.88;;;3.95;;
16957;SDS011;8595;52.542;11.974;2023-05-07T13:52:53;3.90;;;3.50;;
16957;SDS011;8595;52.542;11.974;2023-05-07T13:55:20;4.50;;;3.47;;
16957;SDS011;8595;52.542;11.974;2023-05-07T13:57:48;3.80;;;3.50;;
16957;SDS011;8595;52.542;11.974;2023-05-07T14:00:21;3.78;;;3.47;;
16957;SDS011;8595;52.542;11.974;2023-05-07T14:02:47;3.90;;;3.60;;
16957;SDS011;8595;52.542;11.974;2023-05-07T14:05:14;4.43;;;4.03;;
16957;SDS011;8595;52.542;11.974;2023-05-07T14:07:42;3.55;;;3.22;;
16957;SDS011;8595;52.542;11.974;2023-05-07T14:10:10;4.32;;;3.15;;
16957;SDS011;8595;52.542;11.974;2023-05-07T14:12:38;3.65;;;3.35;;
16957;SDS011;8595;52.542;11.974;2023-05-07T14:15:05;3.72;;;3.10;;
16957;SDS011;8595;52.542;11.974;2023-05-07T14:17:33;4.30;;;3.90;;
16957;SDS011;8595;52.542;11.974;2023-05-07T14:19:59;3.15;;;2.88;;
16957;SDS011;8595;52.542;11.974;2023-05-07T14:22:26;4.15;;;3.10;;
16957;SDS011;8595;52.542;11.974;2023-05-07T14:24:53;3.40;;;2.95;;
16957;SDS011;8595;52.542;11.974;2023-05-07T14:27:21;4.15;;;3.00;;
16957;SDS011;8595;52.542;11.974;2023-05-07T14:29:48;2.97;;;2.78;;
16957;SDS011;8595;52.542;11.974;2023-05-07T14:32:16;4.82;;;3.13;;
16957;SDS011;8595;52.542;11.974;2023-05-07T14:34:43;3.80;;;2.83;;
16957;SDS011;8595;52.542;11.974;2023-05-07T14:37:10;5.20;;;3.20;;
16957;SDS011;8595;52.542;11.974;2023-05-07T14:39:37;2.92;;;2.72;;
16957;SDS011;8595;52.542;11.974;2023-05-07T14:42:04;3.15;;;2.85;;
16957;SDS011;8595;52.542;11.974;2023-05-07T14:44:34;3.72;;;3.33;;
16957;SDS011;8595;52.542;11.974;2023-05-07T14:47:00;2.75;;;2.55;;
16957;SDS011;8595;52.542;11.974;2023-05-07T14:49:27;4.68;;;3.10;;
16957;SDS011;8595;52.542;11.974;2023-05-07T14:51:56;4.50;;;3.08;;